Time;durP1;ratioP1;P1;durP2;ratioP2;P2;SDS_P1;SDS_P2;PMS_P1;PMS_P2;Temp;Humidity;BMP_temperature;BMP_pressure;BME280_temperature;BME280_humidity;BME280_pressure;Samples;Min_cycle;Max_cycle;Signal;HPM_P1;HPM_P2
2022/07/17 00:00:20;;;;;;;6.72;3.10;;;13.60;99.90;;;;;;5035102;28;20479;-68
2022/07/17 00:02:47;;;;;;;5.10;2.85;;;13.60;99.90;;;;;;5000223;28;20057;-67
2022/07/17 00:05:14;;;;;;;7.13;3.20;;;13.50;99.90;;;;;;5015226;28;20042;-67
2022/07/17 00:07:40;;;;;;;7.35;3.50;;;13.50;99.90;;;;;;5014985;28;20125;-66
2022/07/17 00:10:06;;;;;;;4.93;3.20;;;13.40;99.90;;;;;;5015358;28;20073;-66
2022/07/17 00:12:31;;;;;;;7.00;3.35;;;13.50;99.90;;;;;;5015091;28;20505;-67
2022/07/17 00:14:57;;;;;;;8.52;3.67;;;13.50;99.90;;;;;;5015029;28;20184;-66
2022/07/17 00:17:23;;;;;;;4.55;2.85;;;13.50;99.90;;;;;;5014933;28;20132;-67
2022/07/17 00:19:49;;;;;;;8.02;2.97;;;13.50;99.90;;;;;;5034015;28;20124;-66
2022/07/17 00:22:14;;;;;;;11.00;3.80;;;13.50;99.90;;;;;;5034669;28;20474;-66
2022/07/17 00:24:40;;;;;;;8.52;3.55;;;13.50;99.90;;;;;;5034542;28;20091;-65
2022/07/17 00:27:06;;;;;;;6.50;4.00;;;13.30;99.90;;;;;;5034795;28;20188;-66
2022/07/17 00:29:31;;;;;;;7.70;3.70;;;13.40;99.90;;;;;;5034699;28;20463;-66
2022/07/17 00:31:57;;;;;;;8.38;3.75;;;13.30;99.90;;;;;;5034295;28;20050;-66
2022/07/17 00:34:23;;;;;;;7.32;4.15;;;13.40;99.90;;;;;;5034102;28;20063;-66
2022/07/17 00:36:48;;;;;;;6.65;4.03;;;13.40;99.90;;;;;;5034594;28;20049;-68
2022/07/17 00:39:14;;;;;;;4.90;3.38;;;13.40;99.90;;;;;;5034688;28;20119;-65
2022/07/17 00:41:40;;;;;;;8.05;3.78;;;13.40;99.90;;;;;;5034536;28;20081;-66
2022/07/17 00:44:06;;;;;;;6.85;3.90;;;13.40;99.90;;;;;;5034674;28;20048;-65
2022/07/17 00:46:32;;;;;;;7.68;3.90;;;13.30;99.90;;;;;;5032567;28;20041;-66
2022/07/17 00:48:58;;;;;;;9.98;4.13;;;13.30;99.90;;;;;;5033943;28;20042;-65
2022/07/17 00:51:23;;;;;;;8.95;4.07;;;13.30;99.90;;;;;;5017127;28;20344;-67
2022/07/17 00:53:50;;;;;;;6.43;3.75;;;13.30;99.90;;;;;;5033916;28;20459;-67
2022/07/17 00:56:17;;;;;;;6.15;3.28;;;13.30;99.90;;;;;;5034469;28;20125;-65
2022/07/17 00:58:44;;;;;;;5.00;4.03;;;13.30;99.90;;;;;;5016989;28;20106;-68
2022/07/17 01:01:10;;;;;;;9.77;4.00;;;13.20;99.90;;;;;;5033985;28;20092;-66
2022/07/17 01:03:36;;;;;;;6.88;3.92;;;13.20;99.90;;;;;;5034175;28;20479;-66
2022/07/17 01:06:03;;;;;;;12.27;3.90;;;13.30;99.90;;;;;;5034460;28;20063;-65
2022/07/17 01:08:28;;;;;;;6.50;3.95;;;13.30;99.90;;;;;;5034290;28;20497;-65
2022/07/17 01:10:54;;;;;;;7.30;4.72;;;13.30;99.90;;;;;;5036708;28;20041;-66
2022/07/17 01:13:20;;;;;;;8.90;4.40;;;13.30;99.90;;;;;;5038028;28;20050;-67
2022/07/17 01:15:45;;;;;;;7.57;4.13;;;13.20;99.90;;;;;;5037126;28;20426;-65
2022/07/17 01:18:13;;;;;;;6.75;4.07;;;13.10;99.90;;;;;;5036898;28;20041;-65
2022/07/17 01:20:41;;;;;;;8.20;4.68;;;13.20;99.90;;;;;;5020107;28;20050;-66
2022/07/17 01:23:08;;;;;;;9.80;4.60;;;13.10;99.90;;;;;;5037402;28;20103;-67
2022/07/17 01:25:34;;;;;;;10.50;5.10;;;13.00;99.90;;;;;;5037583;28;20065;-66
2022/07/17 01:28:00;;;;;;;8.23;5.38;;;13.00;99.90;;;;;;5037713;28;20092;-66
2022/07/17 01:30:26;;;;;;;6.68;4.50;;;13.00;99.90;;;;;;5037078;28;20069;-66
2022/07/17 01:32:52;;;;;;;12.77;5.00;;;12.90;99.90;;;;;;5037455;28;20053;-66
2022/07/17 01:35:17;;;;;;;7.97;4.65;;;12.90;99.90;;;;;;5037494;28;20475;-67
2022/07/17 01:37:44;;;;;;;7.03;3.70;;;13.00;99.90;;;;;;5037467;28;20041;-67
2022/07/17 01:40:14;;;;;;;8.95;4.30;;;13.00;99.90;;;;;;5037268;28;20091;-66
2022/07/17 01:42:43;;;;;;;8.45;4.00;;;12.90;99.90;;;;;;5037249;28;20042;-67
2022/07/17 01:45:09;;;;;;;6.95;4.10;;;12.90;99.90;;;;;;5036158;28;20490;-65
2022/07/17 01:47:35;;;;;;;7.07;4.25;;;12.90;99.90;;;;;;5037429;28;20091;-66
2022/07/17 01:50:02;;;;;;;8.40;4.10;;;13.00;99.90;;;;;;5037075;28;20132;-65
2022/07/17 01:52:27;;;;;;;6.03;4.00;;;13.00;99.90;;;;;;5034919;28;20463;-66
2022/07/17 01:54:53;;;;;;;8.18;4.60;;;12.90;99.90;;;;;;5037113;28;20060;-68
2022/07/17 01:57:19;;;;;;;7.20;4.80;;;12.90;99.90;;;;;;5037262;28;20053;-66
2022/07/17 01:59:44;;;;;;;8.18;4.20;;;12.90;99.90;;;;;;5037047;28;20080;-67
2022/07/17 02:02:11;;;;;;;7.88;4.70;;;13.00;99.90;;;;;;5036988;28;20045;-67
2022/07/17 02:04:41;;;;;;;7.78;4.55;;;12.90;99.90;;;;;;5036856;28;20092;-65
2022/07/17 02:07:08;;;;;;;8.00;4.38;;;13.00;99.90;;;;;;5035736;28;20348;-66
2022/07/17 02:09:34;;;;;;;7.57;4.30;;;12.90;99.90;;;;;;5002899;28;20049;-66
2022/07/17 02:11:59;;;;;;;8.85;4.30;;;13.00;99.90;;;;;;5036887;28;20065;-65
2022/07/17 02:14:25;;;;;;;11.15;4.40;;;13.00;99.90;;;;;;5036815;28;20037;-67
2022/07/17 02:16:51;;;;;;;9.85;4.55;;;12.90;99.90;;;;;;5036803;28;20044;-68
2022/07/17 02:19:16;;;;;;;12.68;6.32;;;12.90;99.90;;;;;;5036641;28;20040;-65
2022/07/17 02:21:42;;;;;;;6.45;5.10;;;13.00;99.90;;;;;;5029586;28;20056;-66
2022/07/17 02:24:08;;;;;;;7.90;4.78;;;13.00;99.90;;;;;;5016728;28;20041;-65
2022/07/17 02:26:34;;;;;;;9.02;5.85;;;12.90;99.90;;;;;;4999179;28;20452;-66
2022/07/17 02:28:59;;;;;;;11.65;5.53;;;12.80;99.90;;;;;;5016795;28;20046;-65
2022/07/17 02:31:25;;;;;;;8.70;5.60;;;12.70;99.90;;;;;;5016563;28;20042;-67
2022/07/17 02:33:51;;;;;;;10.95;5.28;;;12.70;99.90;;;;;;5017624;28;20037;-65
2022/07/17 02:36:16;;;;;;;10.38;4.75;;;12.60;99.90;;;;;;5036170;28;20125;-67
2022/07/17 02:38:42;;;;;;;6.57;4.60;;;12.70;99.90;;;;;;5036484;28;20045;-66
2022/07/17 02:41:08;;;;;;;10.88;4.90;;;12.60;99.90;;;;;;5036267;28;20488;-66
2022/07/17 02:43:33;;;;;;;6.07;4.13;;;12.60;99.90;;;;;;5018786;28;20053;-67
2022/07/17 02:46:00;;;;;;;8.35;4.68;;;12.60;99.90;;;;;;5018697;28;20567;-65
2022/07/17 02:48:26;;;;;;;9.70;4.95;;;12.70;99.90;;;;;;5035253;28;20045;-66
2022/07/17 02:50:51;;;;;;;8.75;4.35;;;12.60;99.90;;;;;;5035696;28;20060;-66
2022/07/17 02:53:17;;;;;;;7.22;4.85;;;12.50;99.90;;;;;;5035942;28;20048;-65
2022/07/17 02:55:42;;;;;;;8.10;5.07;;;12.70;99.90;;;;;;5018798;28;20045;-67
2022/07/17 02:58:08;;;;;;;8.88;4.53;;;12.60;99.90;;;;;;5035904;28;20509;-65
2022/07/17 03:00:33;;;;;;;8.40;4.50;;;12.70;99.90;;;;;;5036092;28;20049;-67
2022/07/17 03:02:59;;;;;;;8.57;4.55;;;12.70;99.90;;;;;;5035656;28;20038;-67
2022/07/17 03:05:25;;;;;;;8.85;4.38;;;12.60;99.90;;;;;;5034341;28;20037;-66
2022/07/17 03:07:51;;;;;;;8.60;4.47;;;12.60;99.90;;;;;;5035687;28;20104;-65
2022/07/17 03:10:16;;;;;;;7.43;4.57;;;12.60;99.90;;;;;;5035609;28;20041;-65
2022/07/17 03:12:43;;;;;;;4.80;4.00;;;12.60;99.90;;;;;;5018537;28;20554;-66
2022/07/17 03:15:09;;;;;;;7.05;4.60;;;12.60;99.90;;;;;;5035678;28;20050;-65
2022/07/17 03:17:34;;;;;;;9.27;4.97;;;12.60;99.90;;;;;;5034774;28;20521;-66
2022/07/17 03:20:00;;;;;;;10.43;4.25;;;12.60;99.90;;;;;;5035470;28;20045;-66
2022/07/17 03:22:26;;;;;;;8.85;4.80;;;12.60;99.90;;;;;;5035285;28;20100;-67
2022/07/17 03:24:52;;;;;;;7.28;4.10;;;12.60;99.90;;;;;;5035360;28;20131;-66
2022/07/17 03:27:18;;;;;;;6.60;4.55;;;12.60;99.90;;;;;;5035243;28;20042;-65
2022/07/17 03:29:44;;;;;;;8.38;4.60;;;12.60;99.90;;;;;;5035567;28;20075;-66
2022/07/17 03:32:10;;;;;;;7.10;4.30;;;12.60;99.90;;;;;;5034302;28;20056;-66
2022/07/17 03:34:36;;;;;;;8.18;4.07;;;12.60;99.90;;;;;;5035074;28;20061;-68
2022/07/17 03:37:03;;;;;;;11.57;4.72;;;12.80;99.90;;;;;;5035161;28;20049;-66
2022/07/17 03:39:29;;;;;;;6.85;4.18;;;12.70;99.90;;;;;;5035426;28;20182;-68
2022/07/17 03:41:55;;;;;;;9.95;4.40;;;12.70;99.90;;;;;;5034961;28;20045;-67
2022/07/17 03:44:21;;;;;;;7.55;4.43;;;12.70;99.90;;;;;;5035215;28;20053;-65
2022/07/17 03:46:46;;;;;;;7.07;3.92;;;12.70;99.90;;;;;;5019383;28;20064;-67
2022/07/17 03:49:12;;;;;;;6.97;4.03;;;12.80;99.90;;;;;;5017903;28;20191;-67
2022/07/17 03:51:38;;;;;;;6.95;3.63;;;12.90;99.90;;;;;;5035274;28;20064;-67
2022/07/17 03:54:03;;;;;;;7.43;3.75;;;12.90;99.90;;;;;;5035002;28;20045;-66
2022/07/17 03:56:29;;;;;;;6.05;3.53;;;12.90;99.90;;;;;;5034973;28;20041;-65
2022/07/17 03:58:55;;;;;;;5.95;4.55;;;13.00;99.90;;;;;;5035036;28;20052;-67
2022/07/17 04:01:20;;;;;;;8.65;4.00;;;13.10;99.90;;;;;;5034099;28;20107;-65
2022/07/17 04:03:46;;;;;;;7.40;4.30;;;13.10;99.90;;;;;;5017407;28;20088;-66
2022/07/17 04:06:12;;;;;;;10.13;3.90;;;13.20;99.90;;;;;;5034794;28;20123;-66
2022/07/17 04:08:37;;;;;;;6.07;4.18;;;13.20;99.90;;;;;;5034840;28;20053;-66
2022/07/17 04:11:03;;;;;;;6.25;3.97;;;13.30;99.90;;;;;;5034963;28;20127;-65
2022/07/17 04:13:29;;;;;;;7.13;4.05;;;13.20;99.90;;;;;;5034895;28;20133;-66
2022/07/17 04:15:59;;;;;;;10.93;3.85;;;13.40;99.90;;;;;;5032858;28;20447;-67
2022/07/17 04:18:30;;;;;;;10.35;3.75;;;13.40;99.90;;;;;;5034386;28;20061;-66
2022/07/17 04:21:00;;;;;;;9.40;3.50;;;13.50;99.90;;;;;;5034810;28;20095;-66
2022/07/17 04:23:26;;;;;;;8.90;3.38;;;13.50;99.90;;;;;;5034702;28;20084;-66
2022/07/17 04:25:53;;;;;;;11.48;3.67;;;13.60;99.90;;;;;;5034759;28;20463;-67
2022/07/17 04:28:18;;;;;;;6.28;3.10;;;13.70;99.90;;;;;;5034846;28;20080;-67
2022/07/17 04:30:44;;;;;;;8.10;2.75;;;13.70;99.90;;;;;;5032813;28;20042;-65
2022/07/17 04:33:10;;;;;;;8.98;3.25;;;13.70;99.90;;;;;;5034715;28;20045;-67
2022/07/17 04:35:36;;;;;;;8.45;3.47;;;13.70;99.90;;;;;;5034598;28;20056;-66
2022/07/17 04:38:02;;;;;;;5.40;2.88;;;13.70;99.90;;;;;;5034634;28;20092;-65
2022/07/17 04:40:28;;;;;;;11.25;3.50;;;13.70;99.90;;;;;;5034627;28;20050;-66
2022/07/17 04:42:53;;;;;;;9.95;3.67;;;13.90;99.90;;;;;;5034619;28;20349;-65
2022/07/17 04:45:19;;;;;;;5.15;2.85;;;13.90;99.90;;;;;;5035174;28;20064;-68
2022/07/17 04:47:45;;;;;;;5.85;2.90;;;13.90;99.90;;;;;;5038384;28;20052;-67
2022/07/17 04:50:10;;;;;;;6.15;3.10;;;13.80;99.90;;;;;;5020749;28;20045;-66
2022/07/17 04:52:36;;;;;;;6.45;3.00;;;14.00;99.90;;;;;;5038404;28;20127;-66
2022/07/17 04:55:03;;;;;;;7.53;3.47;;;14.00;99.90;;;;;;5038332;28;20045;-67
2022/07/17 04:57:28;;;;;;;9.88;3.70;;;14.00;99.90;;;;;;5037679;28;20084;-65
2022/07/17 04:59:54;;;;;;;7.70;3.22;;;14.10;99.90;;;;;;5038206;28;20081;-65
2022/07/17 05:02:20;;;;;;;7.30;3.53;;;14.00;99.90;;;;;;5037426;28;20041;-67
2022/07/17 05:04:46;;;;;;;9.60;3.10;;;14.10;99.90;;;;;;5038074;28;20046;-66
2022/07/17 05:07:12;;;;;;;12.05;4.72;;;14.10;99.90;;;;;;5038055;28;20124;-67
2022/07/17 05:09:38;;;;;;;6.93;2.78;;;14.10;99.90;;;;;;5037840;28;20041;-67
2022/07/17 05:12:04;;;;;;;5.03;3.25;;;14.20;99.90;;;;;;5037813;28;20125;-66
2022/07/17 05:14:29;;;;;;;6.95;3.10;;;14.10;99.90;;;;;;5003339;28;20057;-65
2022/07/17 05:16:55;;;;;;;10.82;3.50;;;14.20;99.90;;;;;;5037337;28;20091;-67
2022/07/17 05:19:22;;;;;;;7.47;3.25;;;14.20;99.90;;;;;;5037368;28;20041;-66
2022/07/17 05:21:48;;;;;;;10.15;3.50;;;14.10;99.90;;;;;;5037659;28;20052;-66
2022/07/17 05:24:14;;;;;;;6.18;2.75;;;14.10;99.90;;;;;;5037322;28;20053;-66
2022/07/17 05:26:39;;;;;;;8.82;3.97;;;14.20;99.90;;;;;;5037129;28;20060;-67
2022/07/17 05:29:05;;;;;;;8.40;3.15;;;14.20;99.90;;;;;;5037311;28;20057;-67
2022/07/17 05:31:31;;;;;;;11.48;3.70;;;14.20;99.90;;;;;;5036993;28;20448;-67
2022/07/17 05:33:56;;;;;;;9.93;3.30;;;14.30;99.90;;;;;;5037238;28;20045;-66
2022/07/17 05:36:22;;;;;;;9.20;3.60;;;14.30;99.90;;;;;;5020363;28;20056;-67
2022/07/17 05:38:47;;;;;;;8.73;3.85;;;14.30;99.90;;;;;;5020443;28;20037;-66
2022/07/17 05:41:13;;;;;;;11.02;3.35;;;14.40;99.90;;;;;;5037363;28;20150;-66
2022/07/17 05:43:39;;;;;;;8.13;3.67;;;14.40;99.90;;;;;;5035742;28;20045;-67
2022/07/17 05:46:04;;;;;;;8.52;3.53;;;14.50;99.90;;;;;;5037154;28;20415;-66
2022/07/17 05:48:31;;;;;;;7.35;3.40;;;14.50;99.90;;;;;;5037074;28;20147;-65
2022/07/17 05:50:56;;;;;;;8.20;3.40;;;14.50;99.90;;;;;;5037373;28;20120;-66
2022/07/17 05:53:22;;;;;;;6.65;3.15;;;14.60;99.90;;;;;;5037245;28;20400;-65
2022/07/17 05:55:48;;;;;;;7.00;3.83;;;14.70;99.90;;;;;;5037077;28;20104;-69
2022/07/17 05:58:13;;;;;;;11.68;3.45;;;14.80;99.90;;;;;;5036190;28;20049;-67
2022/07/17 06:00:39;;;;;;;10.57;3.15;;;14.80;99.90;;;;;;5036992;28;20088;-64
2022/07/17 06:03:05;;;;;;;8.85;4.18;;;14.80;99.90;;;;;;5035104;28;20084;-66
2022/07/17 06:05:30;;;;;;;9.27;2.95;;;14.80;99.90;;;;;;5000096;28;20103;-64
2022/07/17 06:07:57;;;;;;;8.73;2.92;;;14.90;99.90;;;;;;5021250;28;20440;-65
2022/07/17 06:10:24;;;;;;;10.07;3.25;;;14.90;99.90;;;;;;5036918;28;20128;-68
2022/07/17 06:12:49;;;;;;;7.20;2.95;;;15.00;99.90;;;;;;5036346;28;20081;-66
2022/07/17 06:15:15;;;;;;;5.30;2.78;;;15.10;99.90;;;;;;5036722;28;20077;-65
2022/07/17 06:17:41;;;;;;;7.75;3.17;;;15.20;99.90;;;;;;5036650;28;20048;-66
2022/07/17 06:20:07;;;;;;;9.18;3.20;;;15.30;99.90;;;;;;5019073;28;20049;-64
2022/07/17 06:22:33;;;;;;;6.35;2.53;;;15.30;99.90;;;;;;5036497;28;20042;-68
2022/07/17 06:24:58;;;;;;;8.82;2.70;;;15.40;99.90;;;;;;5036439;28;20065;-68
2022/07/17 06:27:24;;;;;;;12.55;4.82;;;15.40;99.90;;;;;;5035684;28;20368;-69
2022/07/17 06:29:50;;;;;;;4.65;2.08;;;15.40;99.90;;;;;;5036334;28;20080;-68
2022/07/17 06:32:16;;;;;;;8.75;3.30;;;15.40;99.90;;;;;;5036356;28;20436;-68
2022/07/17 06:34:42;;;;;;;10.13;2.85;;;15.50;99.90;;;;;;5036341;28;20048;-69
2022/07/17 06:37:07;;;;;;;8.02;2.30;;;15.50;99.90;;;;;;5036659;28;20072;-66
2022/07/17 06:39:33;;;;;;;7.97;3.10;;;15.60;99.90;;;;;;5036383;28;20049;-64
2022/07/17 06:41:59;;;;;;;7.38;2.80;;;15.60;99.90;;;;;;5034075;28;20042;-65
2022/07/17 06:44:24;;;;;;;6.10;2.78;;;15.60;99.90;;;;;;5036329;28;20060;-65
2022/07/17 06:46:50;;;;;;;6.65;2.67;;;15.60;99.90;;;;;;5036041;28;20056;-67
2022/07/17 06:49:16;;;;;;;12.82;3.55;;;15.70;99.90;;;;;;5036277;28;20041;-66
2022/07/17 06:51:41;;;;;;;6.32;2.70;;;15.70;99.90;;;;;;5036163;28;20124;-64
2022/07/17 06:54:07;;;;;;;12.40;3.45;;;15.70;99.90;;;;;;5018846;28;20049;-66
2022/07/17 06:56:33;;;;;;;9.50;2.95;;;15.70;99.90;;;;;;5035365;28;20120;-67
2022/07/17 06:58:58;;;;;;;7.00;2.60;;;15.80;99.90;;;;;;5016619;28;20050;-68
2022/07/17 07:01:24;;;;;;;7.65;2.83;;;16.00;99.90;;;;;;5036033;28;20046;-65
2022/07/17 07:03:49;;;;;;;6.82;2.33;;;15.90;99.90;;;;;;5035846;28;20422;-67
2022/07/17 07:06:15;;;;;;;7.20;2.78;;;16.00;99.90;;;;;;5025976;28;20038;-66
2022/07/17 07:08:40;;;;;;;9.88;4.68;;;16.00;99.90;;;;;;5035073;28;20452;-66
2022/07/17 07:11:07;;;;;;;4.93;2.20;;;16.00;99.90;;;;;;5035299;28;20099;-66
2022/07/17 07:13:33;;;;;;;8.75;2.67;;;16.00;99.90;;;;;;5035581;28;20037;-67
2022/07/17 07:15:59;;;;;;;7.32;2.70;;;16.00;99.90;;;;;;5034380;28;20127;-65
2022/07/17 07:18:25;;;;;;;4.82;2.45;;;16.00;99.90;;;;;;5035564;28;20049;-67
2022/07/17 07:20:50;;;;;;;7.32;3.17;;;16.10;99.90;;;;;;5033317;28;20116;-68
2022/07/17 07:23:16;;;;;;;6.18;2.17;;;16.20;99.90;;;;;;5033530;28;20094;-68
2022/07/17 07:25:44;;;;;;;4.97;2.17;;;16.30;99.90;;;;;;5034211;28;20057;-68
2022/07/17 07:28:10;;;;;;;9.40;2.40;;;16.40;99.90;;;;;;5035439;28;20091;-69
2022/07/17 07:30:35;;;;;;;10.13;2.30;;;16.50;99.90;;;;;;5017850;28;20061;-70
2022/07/17 07:33:01;;;;;;;7.10;2.00;;;16.50;99.90;;;;;;5034448;28;20057;-64
2022/07/17 07:35:27;;;;;;;11.95;2.92;;;16.60;99.90;;;;;;5035404;28;20056;-66
2022/07/17 07:37:52;;;;;;;8.05;2.30;;;16.60;99.90;;;;;;5035330;28;20037;-67
2022/07/17 07:40:18;;;;;;;7.95;2.72;;;16.70;99.90;;;;;;5033803;28;20047;-65
2022/07/17 07:42:43;;;;;;;9.13;2.50;;;16.90;99.90;;;;;;5035130;28;20133;-65
2022/07/17 07:45:09;;;;;;;6.70;2.45;;;17.00;99.90;;;;;;5034959;28;20041;-66
2022/07/17 07:47:44;;;;;;;10.05;2.58;;;17.00;99.90;;;;;;5034849;28;20049;-65
2022/07/17 07:50:10;;;;;;;;;;;17.10;99.90;;;;;;5035709;28;20128;-66
2022/07/17 07:52:36;;;;;;;8.52;2.60;;;17.20;99.90;;;;;;5035107;28;19925;-65
2022/07/17 07:55:03;;;;;;;6.70;2.17;;;17.30;99.90;;;;;;5034266;28;20103;-65
2022/07/17 07:57:29;;;;;;;7.30;2.42;;;17.30;99.90;;;;;;5017867;28;20110;-65
2022/07/17 07:59:54;;;;;;;7.00;2.10;;;17.40;99.90;;;;;;5034848;28;20052;-64
2022/07/17 08:02:20;;;;;;;8.85;2.10;;;17.50;99.90;;;;;;5034668;28;20061;-68
2022/07/17 08:04:45;;;;;;;8.82;2.70;;;17.50;99.90;;;;;;5034981;28;20475;-66
2022/07/17 08:07:11;;;;;;;13.07;3.08;;;17.40;99.90;;;;;;5034182;28;20041;-67
2022/07/17 08:09:37;;;;;;;10.68;2.25;;;17.60;99.90;;;;;;5033521;28;20132;-66
2022/07/17 08:12:02;;;;;;;6.78;2.10;;;17.80;99.90;;;;;;5034712;28;20049;-66
2022/07/17 08:14:28;;;;;;;8.48;2.97;;;17.80;99.90;;;;;;5035026;28;20485;-68
2022/07/17 08:16:53;;;;;;;9.63;2.30;;;17.80;99.90;;;;;;5034832;28;20056;-67
2022/07/17 08:19:19;;;;;;;6.88;1.85;;;17.80;99.90;;;;;;5034255;28;20457;-69
2022/07/17 08:21:45;;;;;;;3.83;1.90;;;17.90;99.90;;;;;;5038658;28;20467;-67
2022/07/17 08:24:11;;;;;;;3.63;2.33;;;17.90;99.90;;;;;;5037431;28;20049;-68
2022/07/17 08:26:36;;;;;;;6.10;1.80;;;18.00;99.90;;;;;;5038715;28;20064;-66
2022/07/17 08:29:02;;;;;;;5.75;2.40;;;17.90;99.90;;;;;;5038626;28;20419;-66
2022/07/17 08:31:27;;;;;;;5.88;2.13;;;18.10;99.90;;;;;;5038614;28;20077;-67
2022/07/17 08:33:53;;;;;;;11.65;2.17;;;18.20;99.90;;;;;;5038551;28;20053;-67
2022/07/17 08:36:19;;;;;;;9.05;2.03;;;18.40;99.90;;;;;;5038848;28;20503;-66
2022/07/17 08:38:44;;;;;;;4.82;1.90;;;18.40;99.90;;;;;;5037876;28;20447;-67
2022/07/17 08:41:10;;;;;;;11.80;2.05;;;18.50;99.90;;;;;;5038585;28;20041;-67
2022/07/17 08:43:36;;;;;;;9.07;2.05;;;18.50;99.90;;;;;;5038460;28;20045;-67
2022/07/17 08:46:02;;;;;;;5.43;2.08;;;18.60;99.90;;;;;;5038411;28;20076;-67
2022/07/17 08:48:30;;;;;;;7.72;2.13;;;18.70;99.90;;;;;;5038542;28;20042;-67
2022/07/17 08:50:59;;;;;;;7.18;2.67;;;18.80;99.90;;;;;;5038370;28;20057;-66
2022/07/17 08:53:24;;;;;;;5.28;2.15;;;18.80;99.90;;;;;;5036948;28;20399;-66
2022/07/17 08:55:50;;;;;;;3.67;1.95;;;18.90;99.90;;;;;;5038122;28;20060;-68
2022/07/17 08:58:17;;;;;;;5.80;1.73;;;18.80;99.90;;;;;;5037758;28;20367;-68
2022/07/17 09:00:43;;;;;;;6.32;1.80;;;18.90;99.90;;;;;;5037974;28;20474;-68
2022/07/17 09:03:09;;;;;;;6.82;2.65;;;19.00;99.90;;;;;;5037989;28;20064;-66
2022/07/17 09:05:40;;;;;;;5.07;2.30;;;19.20;99.90;;;;;;5037523;28;20046;-68
2022/07/17 09:08:09;;;;;;;5.75;1.95;;;19.20;99.90;;;;;;5037923;28;20042;-67
2022/07/17 09:10:43;;;;;;;6.93;2.10;;;19.30;99.90;;;;;;5037598;28;20045;-69
2022/07/17 09:13:45;;;;;;;3.20;1.75;;;19.40;99.90;;;;;;5037382;28;20135;-69
2022/07/17 09:16:12;;;;;;;6.00;2.08;;;19.60;99.90;;;;;;4986873;28;20465;-68
2022/07/17 09:18:49;;;;;;;6.25;2.40;;;19.60;99.90;;;;;;5018005;28;20037;-67
2022/07/17 09:21:27;;;;;;;7.70;1.88;;;19.80;99.90;;;;;;5018200;28;20115;-70
2022/07/17 09:24:06;;;;;;;7.75;2.00;;;19.80;99.90;;;;;;5017851;28;20344;-67
2022/07/17 09:26:33;;;;;;;4.15;2.03;;;19.80;99.90;;;;;;5000452;28;20583;-67
2022/07/17 09:29:01;;;;;;;3.65;2.40;;;19.70;99.90;;;;;;5008544;28;20053;-69
2022/07/17 09:31:29;;;;;;;6.18;2.20;;;19.90;99.90;;;;;;5036478;28;20364;-68
2022/07/17 09:33:56;;;;;;;2.95;1.95;;;20.00;99.90;;;;;;5037581;28;20128;-68
2022/07/17 09:36:22;;;;;;;3.63;1.98;;;20.10;99.90;;;;;;5037900;28;20060;-68
2022/07/17 09:38:52;;;;;;;3.72;2.17;;;20.20;99.90;;;;;;5037497;28;20045;-67
2022/07/17 09:41:20;;;;;;;3.13;1.80;;;20.20;99.90;;;;;;5037720;28;20041;-68
2022/07/17 09:43:45;;;;;;;4.05;2.00;;;20.20;99.90;;;;;;5036934;28;20075;-67
2022/07/17 09:46:18;;;;;;;5.70;2.20;;;20.30;99.90;;;;;;5037006;28;20064;-69
2022/07/17 09:48:49;;;;;;;3.88;1.80;;;20.40;99.90;;;;;;5037432;28;20406;-68
2022/07/17 09:51:29;;;;;;;4.00;1.90;;;20.50;99.90;;;;;;5037224;28;20033;-67
2022/07/17 09:53:57;;;;;;;4.53;2.22;;;20.60;99.90;;;;;;5037113;28;20045;-67
2022/07/17 09:56:25;;;;;;;4.85;1.90;;;20.60;99.90;;;;;;5036267;28;20049;-69
2022/07/17 09:58:57;;;;;;;4.05;2.15;;;20.60;99.90;;;;;;5019078;28;20102;-67
2022/07/17 10:01:23;;;;;;;4.53;2.08;;;20.50;99.90;;;;;;5036575;28;20121;-67
2022/07/17 10:03:51;;;;;;;3.72;2.20;;;20.60;99.90;;;;;;5019471;28;20087;-68
2022/07/17 10:06:17;;;;;;;4.60;2.10;;;20.60;99.90;;;;;;5036989;28;20398;-69
2022/07/17 10:08:43;;;;;;;4.03;1.92;;;20.60;99.90;;;;;;5036974;28;20057;-69
2022/07/17 10:11:10;;;;;;;4.47;1.80;;;20.80;99.90;;;;;;5019233;28;20064;-69
2022/07/17 10:13:38;;;;;;;7.22;2.35;;;21.00;99.90;;;;;;5035655;28;20049;-69
2022/07/17 10:16:04;;;;;;;4.43;2.08;;;21.10;99.90;;;;;;5036153;28;20045;-69
2022/07/17 10:18:43;;;;;;;6.65;2.22;;;21.10;99.90;;;;;;5036820;28;20047;-70
2022/07/17 10:21:09;;;;;;;4.25;2.50;;;21.20;99.90;;;;;;5036734;28;20357;-68
2022/07/17 10:23:35;;;;;;;6.28;2.40;;;21.20;99.90;;;;;;5036386;28;20052;-69
2022/07/17 10:26:01;;;;;;;4.30;2.15;;;21.30;99.90;;;;;;5036610;28;20049;-68
2022/07/17 10:28:45;;;;;;;7.10;2.42;;;21.30;99.90;;;;;;5018653;28;20060;-67
2022/07/17 10:31:23;;;;;;;4.97;2.83;;;21.40;99.90;;;;;;5036126;28;20120;-67
2022/07/17 10:33:59;;;;;;;4.57;2.58;;;21.50;99.90;;;;;;5036596;28;20038;-68
2022/07/17 10:36:38;;;;;;;4.30;2.08;;;21.70;99.90;;;;;;5036345;28;20080;-68
2022/07/17 10:39:33;;;;;;;5.13;2.20;;;21.80;99.90;;;;;;5036513;28;20156;-67
2022/07/17 10:42:01;;;;;;;4.70;2.38;;;21.80;99.90;;;;;;5009056;28;20379;-69
2022/07/17 10:44:28;;;;;;;7.03;3.08;;;21.90;99.90;;;;;;5035870;28;20183;-68
2022/07/17 10:46:55;;;;;;;6.40;2.95;;;22.00;99.90;;;;;;5036052;28;20046;-67
2022/07/17 10:49:20;;;;;;;8.52;3.10;;;22.40;99.90;;;;;;5036139;28;20042;-70
2022/07/17 10:51:47;;;;;;;5.45;2.33;;;22.50;99.90;;;;;;5018019;28;20050;-69
2022/07/17 10:54:12;;;;;;;5.70;3.17;;;22.60;99.90;;;;;;5036196;28;20045;-68
2022/07/17 10:56:44;;;;;;;4.85;2.90;;;22.70;99.90;;;;;;5035940;28;20076;-68
2022/07/17 10:59:10;;;;;;;5.18;2.70;;;22.60;99.90;;;;;;5035620;28;20372;-70
2022/07/17 11:01:36;;;;;;;5.95;2.97;;;22.80;99.90;;;;;;5036230;28;20114;-69
2022/07/17 11:04:02;;;;;;;8.48;2.58;;;23.00;99.90;;;;;;5035014;28;20052;-69
2022/07/17 11:06:30;;;;;;;5.00;2.40;;;22.90;99.90;;;;;;5035079;28;20045;-69
2022/07/17 11:09:08;;;;;;;7.45;2.70;;;22.90;99.90;;;;;;5035811;28;20456;-69
2022/07/17 11:11:44;;;;;;;6.20;2.72;;;22.90;99.90;;;;;;5035460;28;20483;-69
2022/07/17 11:14:13;;;;;;;7.80;2.70;;;23.00;99.90;;;;;;5035707;28;20037;-68
2022/07/17 11:16:46;;;;;;;6.40;2.78;;;23.10;99.90;;;;;;5036102;28;20111;-69
2022/07/17 11:19:12;;;;;;;4.78;2.25;;;23.00;99.90;;;;;;5035584;28;20072;-69
2022/07/17 11:21:49;;;;;;;6.03;2.60;;;23.30;99.90;;;;;;5035529;28;20050;-67
2022/07/17 11:24:15;;;;;;;6.05;2.30;;;23.50;99.90;;;;;;5035741;28;20049;-69
2022/07/17 11:26:42;;;;;;;5.30;2.90;;;23.50;99.90;;;;;;5036014;28;20136;-67
2022/07/17 11:29:08;;;;;;;5.07;2.67;;;23.60;99.90;;;;;;5035108;28;20475;-69
2022/07/17 11:31:33;;;;;;;4.88;2.78;;;23.90;99.90;;;;;;5035598;28;20084;-68
2022/07/17 11:34:06;;;;;;;3.97;2.95;;;23.70;99.90;;;;;;5035245;28;20463;-69
2022/07/17 11:36:38;;;;;;;4.18;2.53;;;23.90;99.90;;;;;;5035232;28;20049;-70
2022/07/17 11:39:10;;;;;;;4.65;2.40;;;24.10;99.90;;;;;;5017997;28;20045;-69
2022/07/17 11:41:42;;;;;;;4.80;3.00;;;24.20;99.90;;;;;;5019251;28;20058;-67
2022/07/17 11:44:13;;;;;;;5.97;2.83;;;23.90;99.90;;;;;;5015534;28;20060;-70
2022/07/17 11:46:45;;;;;;;3.55;2.63;;;23.90;99.90;;;;;;5015440;28;20038;-68
2022/07/17 11:49:11;;;;;;;6.93;3.10;;;23.70;99.90;;;;;;5015504;28;20400;-69
2022/07/17 11:51:41;;;;;;;6.05;2.65;;;24.00;99.90;;;;;;5015705;28;20081;-69
2022/07/17 11:54:09;;;;;;;7.10;2.80;;;24.40;99.90;;;;;;4998182;28;20384;-69
2022/07/17 11:56:35;;;;;;;5.93;3.00;;;24.40;99.90;;;;;;5032185;28;20102;-70
2022/07/17 11:59:02;;;;;;;5.70;3.25;;;24.50;99.90;;;;;;5035056;28;20042;-71
2022/07/17 12:01:38;;;;;;;3.75;2.50;;;24.70;99.90;;;;;;5015947;28;20127;-69
2022/07/17 12:04:06;;;;;;;4.75;3.33;;;25.10;99.80;;;;;;5035038;28;20045;-70
2022/07/17 12:06:32;;;;;;;7.47;2.97;;;24.60;99.50;;;;;;5034882;28;20076;-70
2022/07/17 12:08:58;;;;;;;4.75;3.30;;;24.80;99.10;;;;;;5034895;28;20065;-70
2022/07/17 12:11:24;;;;;;;5.68;2.80;;;25.10;99.60;;;;;;5034868;28;20061;-69
2022/07/17 12:13:50;;;;;;;5.20;3.13;;;25.70;99.80;;;;;;5034767;28;20131;-71
2022/07/17 12:16:28;;;;;;;4.53;2.92;;;25.70;98.80;;;;;;5034149;28;20081;-68
2022/07/17 12:18:56;;;;;;;6.47;2.70;;;25.80;98.90;;;;;;5034894;28;20049;-66
2022/07/17 12:21:22;;;;;;;4.88;2.80;;;25.60;98.00;;;;;;5034789;28;20046;-67
2022/07/17 12:24:00;;;;;;;4.03;2.63;;;25.80;99.10;;;;;;5034647;28;20056;-67
2022/07/17 12:26:26;;;;;;;6.20;2.90;;;25.90;98.50;;;;;;5034189;28;20054;-69
2022/07/17 12:28:52;;;;;;;5.47;2.97;;;26.00;98.60;;;;;;5033812;28;20045;-71
2022/07/17 12:31:20;;;;;;;4.22;2.72;;;26.00;98.70;;;;;;5034736;28;20045;-71
2022/07/17 12:33:45;;;;;;;4.13;2.67;;;25.90;98.30;;;;;;5034681;28;20049;-67
2022/07/17 12:36:11;;;;;;;5.00;3.08;;;26.00;98.10;;;;;;5034405;28;20042;-67
2022/07/17 12:38:37;;;;;;;4.65;2.80;;;25.90;97.90;;;;;;5034793;28;20049;-67
2022/07/17 12:41:04;;;;;;;5.63;3.70;;;25.90;97.70;;;;;;5034582;28;20041;-66
2022/07/17 12:43:30;;;;;;;5.88;3.65;;;26.00;97.40;;;;;;5033672;28;20046;-70